sensor_id;sensor_type;location;lat;lon;timestamp;P1;durP1;ratioP1;P2;durP2;ratioP2
4636;SDS011;2331;48.806;9.140;2023-05-07T00:02:15;26.15;;;15.82;;
4636;SDS011;2331;48.806;9.140;2023-05-07T00:04:42;23.23;;;13.40;;
4636;SDS011;2331;48.806;9.140;2023-05-07T00:07:10;23.98;;;14.77;;
4636;SDS011;2331;48.806;9.140;2023-05-07T00:09:37;19.90;;;12.40;;
4636;SDS011;2331;48.806;9.140;2023-05-07T00:12:04;19.73;;;12.82;;
4636;SDS011;2331;48.806;9.140;2023-05-07T00:14:30;17.85;;;11.25;;
4636;SDS011;2331;48.806;9.140;2023-05-07T00:16:57;15.50;;;10.68;;
4636;SDS011;2331;48.806;9.140;2023-05-07T00:19:24;15.38;;;9.80;;
4636;SDS011;2331;48.806;9.140;2023-05-07T00:21:51;13.52;;;9.25;;
4636;SDS011;2331;48.806;9.140;2023-05-07T00:24:20;14.10;;;8.68;;
4636;SDS011;2331;48.806;9.140;2023-05-07T00:26:47;10.20;;;6.82;;
4636;SDS011;2331;48.806;9.140;2023-05-07T00:29:14;11.35;;;6.50;;
4636;SDS011;2331;48.806;9.140;2023-05-07T00:31:41;10.00;;;5.93;;
4636;SDS011;2331;48.806;9.140;2023-05-07T00:34:08;9.93;;;5.88;;
4636;SDS011;2331;48.806;9.140;2023-05-07T00:36:34;8.65;;;4.32;;
4636;SDS011;2331;48.806;9.140;2023-05-07T00:39:01;6.00;;;3.45;;
4636;SDS011;2331;48.806;9.140;2023-05-07T00:41:30;6.90;;;4.05;;
4636;SDS011;2331;48.806;9.140;2023-05-07T00:43:56;7.13;;;3.67;;
4636;SDS011;2331;48.806;9.140;2023-05-07T00:46:23;5.97;;;3.55;;
4636;SDS011;2331;48.806;9.140;2023-05-07T00:48:51;7.78;;;3.47;;
4636;SDS011;2331;48.806;9.140;2023-05-07T00:51:18;6.32;;;3.45;;
4636;SDS011;2331;48.806;9.140;2023-05-07T00:53:45;6.32;;;4.03;;
4636;SDS011;2331;48.806;9.140;2023-05-07T00:56:13;6.13;;;3.33;;
4636;SDS011;2331;48.806;9.140;2023-05-07T00:58:41;10.70;;;4.03;;
4636;SDS011;2331;48.806;9.140;2023-05-07T01:01:08;8.57;;;3.83;;
4636;SDS011;2331;48.806;9.140;2023-05-07T01:03:35;8.15;;;4.30;;
4636;SDS011;2331;48.806;9.140;2023-05-07T01:06:03;7.45;;;3.60;;
4636;SDS011;2331;48.806;9.140;2023-05-07T01:08:30;4.38;;;3.50;;
4636;SDS011;2331;48.806;9.140;2023-05-07T01:11:00;5.15;;;3.20;;
4636;SDS011;2331;48.806;9.140;2023-05-07T01:13:27;7.53;;;3.10;;
4636;SDS011;2331;48.806;9.140;2023-05-07T01:15:56;5.22;;;3.67;;
4636;SDS011;2331;48.806;9.140;2023-05-07T01:18:22;5.13;;;3.00;;
4636;SDS011;2331;48.806;9.140;2023-05-07T01:20:51;4.60;;;2.60;;
4636;SDS011;2331;48.806;9.140;2023-05-07T01:23:20;5.78;;;2.90;;
4636;SDS011;2331;48.806;9.140;2023-05-07T01:25:50;3.90;;;3.00;;
4636;SDS011;2331;48.806;9.140;2023-05-07T01:28:18;3.53;;;2.40;;
4636;SDS011;2331;48.806;9.140;2023-05-07T01:30:45;7.70;;;3.22;;
4636;SDS011;2331;48.806;9.140;2023-05-07T01:33:17;5.35;;;2.80;;
4636;SDS011;2331;48.806;9.140;2023-05-07T01:35:46;5.65;;;3.00;;
4636;SDS011;2331;48.806;9.140;2023-05-07T01:38:17;3.75;;;2.47;;
4636;SDS011;2331;48.806;9.140;2023-05-07T01:40:47;3.53;;;2.72;;
4636;SDS011;2331;48.806;9.140;2023-05-07T01:43:14;5.82;;;2.25;;
4636;SDS011;2331;48.806;9.140;2023-05-07T01:45:41;5.15;;;3.20;;
4636;SDS011;2331;48.806;9.140;2023-05-07T01:48:09;3.97;;;2.65;;
4636;SDS011;2331;48.806;9.140;2023-05-07T01:50:37;8.27;;;2.92;;
4636;SDS011;2331;48.806;9.140;2023-05-07T01:53:05;5.80;;;2.70;;
4636;SDS011;2331;48.806;9.140;2023-05-07T01:55:33;5.03;;;2.60;;
4636;SDS011;2331;48.806;9.140;2023-05-07T01:58:01;4.05;;;2.70;;
4636;SDS011;2331;48.806;9.140;2023-05-07T02:00:28;4.68;;;2.70;;
4636;SDS011;2331;48.806;9.140;2023-05-07T02:02:55;4.38;;;3.17;;
4636;SDS011;2331;48.806;9.140;2023-05-07T02:05:22;4.75;;;3.10;;
4636;SDS011;2331;48.806;9.140;2023-05-07T02:07:49;4.95;;;3.05;;
4636;SDS011;2331;48.806;9.140;2023-05-07T02:10:16;5.47;;;3.10;;
4636;SDS011;2331;48.806;9.140;2023-05-07T02:12:44;5.15;;;2.80;;
4636;SDS011;2331;48.806;9.140;2023-05-07T02:15:11;4.70;;;3.50;;
4636;SDS011;2331;48.806;9.140;2023-05-07T02:17:39;5.10;;;2.72;;
4636;SDS011;2331;48.806;9.140;2023-05-07T02:20:24;4.88;;;3.17;;
4636;SDS011;2331;48.806;9.140;2023-05-07T02:22:51;7.20;;;3.25;;
4636;SDS011;2331;48.806;9.140;2023-05-07T02:25:18;4.90;;;3.05;;
4636;SDS011;2331;48.806;9.140;2023-05-07T02:27:46;5.55;;;2.90;;
4636;SDS011;2331;48.806;9.140;2023-05-07T02:30:13;6.53;;;3.58;;
4636;SDS011;2331;48.806;9.140;2023-05-07T02:32:40;12.52;;;3.45;;
4636;SDS011;2331;48.806;9.140;2023-05-07T02:35:07;4.60;;;3.40;;
4636;SDS011;2331;48.806;9.140;2023-05-07T02:37:34;5.65;;;3.33;;
4636;SDS011;2331;48.806;9.140;2023-05-07T02:40:01;7.20;;;3.20;;
4636;SDS011;2331;48.806;9.140;2023-05-07T02:42:29;5.05;;;3.00;;
4636;SDS011;2331;48.806;9.140;2023-05-07T02:44:57;5.65;;;3.65;;
4636;SDS011;2331;48.806;9.140;2023-05-07T02:47:24;5.63;;;3.25;;
4636;SDS011;2331;48.806;9.140;2023-05-07T02:49:51;5.32;;;3.00;;
4636;SDS011;2331;48.806;9.140;2023-05-07T02:52:18;10.95;;;3.22;;
4636;SDS011;2331;48.806;9.140;2023-05-07T02:54:45;6.35;;;3.90;;
4636;SDS011;2331;48.806;9.140;2023-05-07T02:57:12;4.90;;;3.38;;
4636;SDS011;2331;48.806;9.140;2023-05-07T02:59:39;4.53;;;2.90;;
4636;SDS011;2331;48.806;9.140;2023-05-07T03:02:07;5.25;;;3.55;;
4636;SDS011;2331;48.806;9.140;2023-05-07T03:04:33;4.28;;;3.17;;
4636;SDS011;2331;48.806;9.140;2023-05-07T03:07:00;5.53;;;3.28;;
4636;SDS011;2331;48.806;9.140;2023-05-07T03:09:27;11.68;;;3.55;;
4636;SDS011;2331;48.806;9.140;2023-05-07T03:11:54;4.25;;;3.10;;
4636;SDS011;2331;48.806;9.140;2023-05-07T03:14:20;6.50;;;3.05;;
4636;SDS011;2331;48.806;9.140;2023-05-07T03:16:48;4.85;;;3.55;;
4636;SDS011;2331;48.806;9.140;2023-05-07T03:19:16;6.35;;;3.60;;
4636;SDS011;2331;48.806;9.140;2023-05-07T03:21:43;4.72;;;3.00;;
4636;SDS011;2331;48.806;9.140;2023-05-07T03:24:10;5.68;;;3.10;;
4636;SDS011;2331;48.806;9.140;2023-05-07T03:26:37;5.03;;;3.30;;
4636;SDS011;2331;48.806;9.140;2023-05-07T03:29:04;6.45;;;3.15;;
4636;SDS011;2331;48.806;9.140;2023-05-07T03:31:30;4.07;;;3.22;;
4636;SDS011;2331;48.806;9.140;2023-05-07T03:33:57;4.45;;;2.80;;
4636;SDS011;2331;48.806;9.140;2023-05-07T03:36:25;5.30;;;2.72;;
4636;SDS011;2331;48.806;9.140;2023-05-07T03:38:52;4.57;;;3.05;;
4636;SDS011;2331;48.806;9.140;2023-05-07T03:41:19;4.80;;;3.28;;
4636;SDS011;2331;48.806;9.140;2023-05-07T03:43:46;4.63;;;3.92;;
4636;SDS011;2331;48.806;9.140;2023-05-07T03:46:13;3.35;;;2.75;;
4636;SDS011;2331;48.806;9.140;2023-05-07T03:48:39;4.63;;;2.80;;
4636;SDS011;2331;48.806;9.140;2023-05-07T03:51:06;4.35;;;3.00;;
4636;SDS011;2331;48.806;9.140;2023-05-07T03:53:34;4.97;;;2.85;;
4636;SDS011;2331;48.806;9.140;2023-05-07T03:56:01;4.70;;;2.85;;
4636;SDS011;2331;48.806;9.140;2023-05-07T03:58:28;3.47;;;2.67;;
4636;SDS011;2331;48.806;9.140;2023-05-07T04:00:55;7.43;;;3.33;;
4636;SDS011;2331;48.806;9.140;2023-05-07T04:03:22;4.32;;;3.25;;
4636;SDS011;2331;48.806;9.140;2023-05-07T04:05:50;4.18;;;2.60;;
4636;SDS011;2331;48.806;9.140;2023-05-07T04:08:17;5.82;;;2.53;;
4636;SDS011;2331;48.806;9.140;2023-05-07T04:10:45;3.60;;;2.50;;
4636;SDS011;2331;48.806;9.140;2023-05-07T04:13:11;7.15;;;2.80;;
4636;SDS011;2331;48.806;9.140;2023-05-07T04:15:38;3.90;;;2.75;;
4636;SDS011;2331;48.806;9.140;2023-05-07T04:18:05;4.55;;;2.53;;
4636;SDS011;2331;48.806;9.140;2023-05-07T04:20:33;5.13;;;2.90;;
4636;SDS011;2331;48.806;9.140;2023-05-07T04:23:01;6.10;;;3.15;;
4636;SDS011;2331;48.806;9.140;2023-05-07T04:25:28;13.38;;;4.07;;
4636;SDS011;2331;48.806;9.140;2023-05-07T04:27:56;8.23;;;3.45;;
4636;SDS011;2331;48.806;9.140;2023-05-07T04:30:23;7.10;;;3.60;;
4636;SDS011;2331;48.806;9.140;2023-05-07T04:32:50;4.88;;;3.00;;
4636;SDS011;2331;48.806;9.140;2023-05-07T04:35:17;6.43;;;3.20;;
4636;SDS011;2331;48.806;9.140;2023-05-07T04:37:44;3.47;;;2.45;;
4636;SDS011;2331;48.806;9.140;2023-05-07T04:40:11;3.92;;;2.83;;
4636;SDS011;2331;48.806;9.140;2023-05-07T04:42:38;5.85;;;3.08;;
4636;SDS011;2331;48.806;9.140;2023-05-07T04:45:07;3.90;;;3.10;;
4636;SDS011;2331;48.806;9.140;2023-05-07T04:47:35;3.85;;;2.80;;
4636;SDS011;2331;48.806;9.140;2023-05-07T04:50:02;8.95;;;3.10;;
4636;SDS011;2331;48.806;9.140;2023-05-07T04:52:29;4.55;;;2.72;;
4636;SDS011;2331;48.806;9.140;2023-05-07T04:54:56;5.40;;;3.00;;
4636;SDS011;2331;48.806;9.140;2023-05-07T04:57:25;3.90;;;2.90;;
4636;SDS011;2331;48.806;9.140;2023-05-07T04:59:52;5.18;;;2.92;;
4636;SDS011;2331;48.806;9.140;2023-05-07T05:02:20;3.97;;;2.53;;
4636;SDS011;2331;48.806;9.140;2023-05-07T05:04:47;3.60;;;3.13;;
4636;SDS011;2331;48.806;9.140;2023-05-07T05:07:13;5.55;;;2.92;;
4636;SDS011;2331;48.806;9.140;2023-05-07T05:09:40;6.10;;;3.70;;
4636;SDS011;2331;48.806;9.140;2023-05-07T05:12:07;5.68;;;3.20;;
4636;SDS011;2331;48.806;9.140;2023-05-07T05:14:34;4.60;;;3.10;;
4636;SDS011;2331;48.806;9.140;2023-05-07T05:17:00;4.20;;;2.97;;
4636;SDS011;2331;48.806;9.140;2023-05-07T05:19:28;4.15;;;2.78;;
4636;SDS011;2331;48.806;9.140;2023-05-07T05:21:55;8.88;;;3.03;;
4636;SDS011;2331;48.806;9.140;2023-05-07T05:24:22;6.72;;;2.83;;
4636;SDS011;2331;48.806;9.140;2023-05-07T05:26:49;5.57;;;2.72;;
4636;SDS011;2331;48.806;9.140;2023-05-07T05:29:15;3.78;;;2.60;;
4636;SDS011;2331;48.806;9.140;2023-05-07T05:31:42;6.82;;;3.33;;
4636;SDS011;2331;48.806;9.140;2023-05-07T05:34:09;4.22;;;3.08;;
4636;SDS011;2331;48.806;9.140;2023-05-07T05:36:37;3.60;;;2.88;;
4636;SDS011;2331;48.806;9.140;2023-05-07T05:39:04;5.32;;;3.25;;
4636;SDS011;2331;48.806;9.140;2023-05-07T05:41:31;4.28;;;3.15;;
4636;SDS011;2331;48.806;9.140;2023-05-07T05:43:57;4.57;;;3.17;;
4636;SDS011;2331;48.806;9.140;2023-05-07T05:46:24;4.55;;;3.20;;
4636;SDS011;2331;48.806;9.140;2023-05-07T05:48:51;8.80;;;3.45;;
4636;SDS011;2331;48.806;9.140;2023-05-07T05:51:18;5.95;;;3.30;;
4636;SDS011;2331;48.806;9.140;2023-05-07T05:53:46;4.18;;;3.35;;
4636;SDS011;2331;48.806;9.140;2023-05-07T05:56:13;5.30;;;3.67;;
4636;SDS011;2331;48.806;9.140;2023-05-07T05:58:40;4.53;;;3.20;;
4636;SDS011;2331;48.806;9.140;2023-05-07T06:01:06;5.47;;;3.70;;
4636;SDS011;2331;48.806;9.140;2023-05-07T06:03:33;5.72;;;3.70;;
4636;SDS011;2331;48.806;9.140;2023-05-07T06:06:00;9.38;;;4.75;;
4636;SDS011;2331;48.806;9.140;2023-05-07T06:08:28;6.05;;;4.45;;
4636;SDS011;2331;48.806;9.140;2023-05-07T06:10:57;6.90;;;4.50;;
4636;SDS011;2331;48.806;9.140;2023-05-07T06:13:24;6.65;;;4.50;;
4636;SDS011;2331;48.806;9.140;2023-05-07T06:15:51;6.43;;;4.80;;
4636;SDS011;2331;48.806;9.140;2023-05-07T06:18:18;8.13;;;4.45;;
4636;SDS011;2331;48.806;9.140;2023-05-07T06:20:44;8.15;;;4.80;;
4636;SDS011;2331;48.806;9.140;2023-05-07T06:23:11;5.75;;;4.22;;
4636;SDS011;2331;48.806;9.140;2023-05-07T06:25:38;5.68;;;4.50;;
4636;SDS011;2331;48.806;9.140;2023-05-07T06:28:06;6.72;;;4.97;;
4636;SDS011;2331;48.806;9.140;2023-05-07T06:30:33;7.85;;;4.50;;
4636;SDS011;2331;48.806;9.140;2023-05-07T06:33:00;5.43;;;4.10;;
4636;SDS011;2331;48.806;9.140;2023-05-07T06:35:27;8.00;;;5.10;;
4636;SDS011;2331;48.806;9.140;2023-05-07T06:37:54;8.85;;;4.55;;
4636;SDS011;2331;48.806;9.140;2023-05-07T06:40:20;9.05;;;4.68;;
4636;SDS011;2331;48.806;9.140;2023-05-07T06:42:47;6.32;;;4.43;;
4636;SDS011;2331;48.806;9.140;2023-05-07T06:45:15;6.05;;;4.70;;
4636;SDS011;2331;48.806;9.140;2023-05-07T06:47:42;6.05;;;4.43;;
4636;SDS011;2331;48.806;9.140;2023-05-07T06:50:09;6.50;;;4.82;;
4636;SDS011;2331;48.806;9.140;2023-05-07T06:52:36;6.95;;;4.20;;
4636;SDS011;2331;48.806;9.140;2023-05-07T06:55:03;8.43;;;5.00;;
4636;SDS011;2331;48.806;9.140;2023-05-07T06:57:31;9.93;;;5.03;;
4636;SDS011;2331;48.806;9.140;2023-05-07T06:59:57;7.20;;;4.90;;
4636;SDS011;2331;48.806;9.140;2023-05-07T07:02:26;8.45;;;4.53;;
4636;SDS011;2331;48.806;9.140;2023-05-07T07:04:52;8.30;;;5.40;;
4636;SDS011;2331;48.806;9.140;2023-05-07T07:07:19;8.68;;;4.82;;
4636;SDS011;2331;48.806;9.140;2023-05-07T07:09:46;7.38;;;4.15;;
4636;SDS011;2331;48.806;9.140;2023-05-07T07:12:13;7.60;;;4.28;;
4636;SDS011;2331;48.806;9.140;2023-05-07T07:14:39;6.78;;;4.28;;
4636;SDS011;2331;48.806;9.140;2023-05-07T07:17:06;8.02;;;4.32;;
4636;SDS011;2331;48.806;9.140;2023-05-07T07:19:35;9.57;;;4.40;;
4636;SDS011;2331;48.806;9.140;2023-05-07T07:22:02;5.30;;;3.70;;
4636;SDS011;2331;48.806;9.140;2023-05-07T07:24:29;5.07;;;3.75;;
4636;SDS011;2331;48.806;9.140;2023-05-07T07:26:56;6.63;;;3.67;;
4636;SDS011;2331;48.806;9.140;2023-05-07T07:29:22;4.63;;;3.50;;
4636;SDS011;2331;48.806;9.140;2023-05-07T07:31:51;4.95;;;3.22;;
4636;SDS011;2331;48.806;9.140;2023-05-07T07:34:18;4.75;;;3.75;;
4636;SDS011;2331;48.806;9.140;2023-05-07T07:36:46;7.35;;;3.15;;
4636;SDS011;2331;48.806;9.140;2023-05-07T07:39:13;4.85;;;3.05;;
4636;SDS011;2331;48.806;9.140;2023-05-07T07:41:39;5.25;;;3.10;;
4636;SDS011;2331;48.806;9.140;2023-05-07T07:44:06;5.82;;;3.17;;
4636;SDS011;2331;48.806;9.140;2023-05-07T07:46:33;5.15;;;2.70;;
4636;SDS011;2331;48.806;9.140;2023-05-07T07:49:00;5.22;;;3.30;;
4636;SDS011;2331;48.806;9.140;2023-05-07T07:51:27;6.07;;;3.63;;
4636;SDS011;2331;48.806;9.140;2023-05-07T07:53:56;5.75;;;2.80;;
4636;SDS011;2331;48.806;9.140;2023-05-07T07:56:23;4.68;;;3.35;;
4636;SDS011;2331;48.806;9.140;2023-05-07T07:58:50;7.60;;;3.70;;
4636;SDS011;2331;48.806;9.140;2023-05-07T08:01:17;7.55;;;3.60;;
4636;SDS011;2331;48.806;9.140;2023-05-07T08:03:44;4.97;;;3.35;;
4636;SDS011;2331;48.806;9.140;2023-05-07T08:06:10;6.20;;;3.78;;
4636;SDS011;2331;48.806;9.140;2023-05-07T08:08:37;5.95;;;3.85;;
4636;SDS011;2331;48.806;9.140;2023-05-07T08:11:05;8.45;;;4.00;;
4636;SDS011;2331;48.806;9.140;2023-05-07T08:13:32;4.33;;;3.63;;
4636;SDS011;2331;48.806;9.140;2023-05-07T08:15:59;5.10;;;4.00;;
4636;SDS011;2331;48.806;9.140;2023-05-07T08:18:25;9.43;;;4.03;;
4636;SDS011;2331;48.806;9.140;2023-05-07T08:20:54;7.20;;;4.47;;
4636;SDS011;2331;48.806;9.140;2023-05-07T08:23:20;7.03;;;4.30;;
4636;SDS011;2331;48.806;9.140;2023-05-07T08:25:47;5.87;;;4.57;;
4636;SDS011;2331;48.806;9.140;2023-05-07T08:28:16;7.67;;;4.50;;
4636;SDS011;2331;48.806;9.140;2023-05-07T08:30:43;6.80;;;3.87;;
4636;SDS011;2331;48.806;9.140;2023-05-07T08:33:09;6.50;;;4.80;;
4636;SDS011;2331;48.806;9.140;2023-05-07T08:35:36;5.23;;;4.03;;
4636;SDS011;2331;48.806;9.140;2023-05-07T08:38:03;6.20;;;4.00;;
4636;SDS011;2331;48.806;9.140;2023-05-07T08:40:30;9.00;;;3.90;;
4636;SDS011;2331;48.806;9.140;2023-05-07T08:43:03;5.60;;;3.83;;
4636;SDS011;2331;48.806;9.140;2023-05-07T08:45:33;6.00;;;3.20;;
4636;SDS011;2331;48.806;9.140;2023-05-07T08:48:01;5.37;;;3.23;;
4636;SDS011;2331;48.806;9.140;2023-05-07T08:50:29;6.83;;;3.67;;
4636;SDS011;2331;48.806;9.140;2023-05-07T08:52:56;6.13;;;4.00;;
4636;SDS011;2331;48.806;9.140;2023-05-07T08:55:24;7.63;;;3.77;;
4636;SDS011;2331;48.806;9.140;2023-05-07T08:57:51;9.37;;;4.10;;
4636;SDS011;2331;48.806;9.140;2023-05-07T09:00:18;6.07;;;3.47;;
4636;SDS011;2331;48.806;9.140;2023-05-07T09:02:46;4.77;;;3.10;;
4636;SDS011;2331;48.806;9.140;2023-05-07T09:05:13;4.07;;;3.17;;
4636;SDS011;2331;48.806;9.140;2023-05-07T09:07:40;5.90;;;3.07;;
4636;SDS011;2331;48.806;9.140;2023-05-07T09:10:07;6.33;;;3.03;;
4636;SDS011;2331;48.806;9.140;2023-05-07T09:12:34;4.83;;;2.97;;
4636;SDS011;2331;48.806;9.140;2023-05-07T09:15:01;5.53;;;3.00;;
4636;SDS011;2331;48.806;9.140;2023-05-07T09:17:28;4.27;;;2.67;;
4636;SDS011;2331;48.806;9.140;2023-05-07T09:19:56;8.93;;;2.77;;
4636;SDS011;2331;48.806;9.140;2023-05-07T09:22:31;6.27;;;2.90;;
4636;SDS011;2331;48.806;9.140;2023-05-07T09:24:58;3.80;;;2.40;;
4636;SDS011;2331;48.806;9.140;2023-05-07T09:27:24;5.10;;;2.77;;
4636;SDS011;2331;48.806;9.140;2023-05-07T09:29:51;3.90;;;2.57;;
4636;SDS011;2331;48.806;9.140;2023-05-07T09:32:18;3.10;;;2.20;;
4636;SDS011;2331;48.806;9.140;2023-05-07T09:34:45;6.70;;;2.63;;
4636;SDS011;2331;48.806;9.140;2023-05-07T09:37:14;6.70;;;2.60;;
4636;SDS011;2331;48.806;9.140;2023-05-07T09:39:43;3.63;;;2.20;;
4636;SDS011;2331;48.806;9.140;2023-05-07T09:42:11;4.57;;;2.53;;
4636;SDS011;2331;48.806;9.140;2023-05-07T09:44:40;4.87;;;2.77;;
4636;SDS011;2331;48.806;9.140;2023-05-07T09:47:07;3.13;;;2.33;;
4636;SDS011;2331;48.806;9.140;2023-05-07T09:49:35;5.10;;;2.50;;
4636;SDS011;2331;48.806;9.140;2023-05-07T09:52:04;3.50;;;2.20;;
4636;SDS011;2331;48.806;9.140;2023-05-07T09:54:35;4.50;;;2.77;;
4636;SDS011;2331;48.806;9.140;2023-05-07T09:57:08;4.90;;;2.77;;
4636;SDS011;2331;48.806;9.140;2023-05-07T09:59:37;4.83;;;2.60;;
4636;SDS011;2331;48.806;9.140;2023-05-07T10:02:04;4.57;;;2.10;;
4636;SDS011;2331;48.806;9.140;2023-05-07T10:04:31;10.93;;;2.43;;
4636;SDS011;2331;48.806;9.140;2023-05-07T10:07:02;5.20;;;2.27;;
4636;SDS011;2331;48.806;9.140;2023-05-07T10:09:42;5.07;;;2.50;;
4636;SDS011;2331;48.806;9.140;2023-05-07T10:12:09;4.80;;;2.30;;
4636;SDS011;2331;48.806;9.140;2023-05-07T10:14:36;4.13;;;2.30;;
4636;SDS011;2331;48.806;9.140;2023-05-07T10:17:03;3.57;;;2.50;;
4636;SDS011;2331;48.806;9.140;2023-05-07T10:19:31;3.73;;;2.20;;
4636;SDS011;2331;48.806;9.140;2023-05-07T10:22:01;4.30;;;2.53;;
4636;SDS011;2331;48.806;9.140;2023-05-07T10:24:32;4.93;;;2.50;;
4636;SDS011;2331;48.806;9.140;2023-05-07T10:27:01;3.10;;;2.17;;
4636;SDS011;2331;48.806;9.140;2023-05-07T10:29:33;5.73;;;2.60;;
4636;SDS011;2331;48.806;9.140;2023-05-07T10:32:09;4.70;;;2.40;;
4636;SDS011;2331;48.806;9.140;2023-05-07T10:34:50;5.53;;;2.50;;
4636;SDS011;2331;48.806;9.140;2023-05-07T10:37:20;6.00;;;2.60;;
4636;SDS011;2331;48.806;9.140;2023-05-07T10:39:48;7.53;;;2.40;;
4636;SDS011;2331;48.806;9.140;2023-05-07T10:42:17;4.43;;;2.40;;
4636;SDS011;2331;48.806;9.140;2023-05-07T10:44:43;5.43;;;2.30;;
4636;SDS011;2331;48.806;9.140;2023-05-07T10:47:11;6.10;;;2.67;;
4636;SDS011;2331;48.806;9.140;2023-05-07T10:52:39;5.80;;;2.30;;
4636;SDS011;2331;48.806;9.140;2023-05-07T10:55:19;5.17;;;2.57;;
4636;SDS011;2331;48.806;9.140;2023-05-07T10:57:48;6.10;;;2.30;;
4636;SDS011;2331;48.806;9.140;2023-05-07T11:03:09;4.70;;;2.50;;
4636;SDS011;2331;48.806;9.140;2023-05-07T11:05:36;5.67;;;2.60;;
4636;SDS011;2331;48.806;9.140;2023-05-07T11:08:04;7.00;;;2.63;;
4636;SDS011;2331;48.806;9.140;2023-05-07T11:10:47;5.67;;;2.83;;
4636;SDS011;2331;48.806;9.140;2023-05-07T11:13:16;5.30;;;2.97;;
4636;SDS011;2331;48.806;9.140;2023-05-07T11:15:45;5.73;;;2.20;;
4636;SDS011;2331;48.806;9.140;2023-05-07T11:18:13;4.53;;;2.67;;
4636;SDS011;2331;48.806;9.140;2023-05-07T11:20:44;5.27;;;3.00;;
4636;SDS011;2331;48.806;9.140;2023-05-07T11:26:12;5.23;;;2.90;;
4636;SDS011;2331;48.806;9.140;2023-05-07T11:28:41;8.63;;;3.80;;
4636;SDS011;2331;48.806;9.140;2023-05-07T11:31:09;5.43;;;3.00;;
4636;SDS011;2331;48.806;9.140;2023-05-07T11:33:37;3.37;;;2.00;;
4636;SDS011;2331;48.806;9.140;2023-05-07T11:36:04;6.90;;;2.70;;
4636;SDS011;2331;48.806;9.140;2023-05-07T11:38:34;4.60;;;2.80;;
4636;SDS011;2331;48.806;9.140;2023-05-07T11:41:02;3.97;;;2.53;;
4636;SDS011;2331;48.806;9.140;2023-05-07T11:43:30;4.50;;;2.67;;
4636;SDS011;2331;48.806;9.140;2023-05-07T11:46:05;4.10;;;2.77;;
4636;SDS011;2331;48.806;9.140;2023-05-07T11:48:34;3.40;;;2.13;;
4636;SDS011;2331;48.806;9.140;2023-05-07T11:51:02;4.60;;;2.80;;
4636;SDS011;2331;48.806;9.140;2023-05-07T11:53:35;4.80;;;2.73;;
4636;SDS011;2331;48.806;9.140;2023-05-07T11:56:06;3.77;;;2.57;;
4636;SDS011;2331;48.806;9.140;2023-05-07T11:58:34;5.00;;;2.60;;
4636;SDS011;2331;48.806;9.140;2023-05-07T12:01:01;5.90;;;2.90;;
4636;SDS011;2331;48.806;9.140;2023-05-07T12:03:29;4.00;;;2.83;;
4636;SDS011;2331;48.806;9.140;2023-05-07T12:05:56;4.87;;;2.73;;
4636;SDS011;2331;48.806;9.140;2023-05-07T12:08:22;3.37;;;2.20;;
4636;SDS011;2331;48.806;9.140;2023-05-07T12:10:50;4.30;;;3.10;;
4636;SDS011;2331;48.806;9.140;2023-05-07T12:13:17;6.47;;;2.80;;
4636;SDS011;2331;48.806;9.140;2023-05-07T12:15:46;6.10;;;2.73;;
4636;SDS011;2331;48.806;9.140;2023-05-07T12:18:13;4.90;;;2.80;;
4636;SDS011;2331;48.806;9.140;2023-05-07T12:20:41;5.60;;;2.70;;
4636;SDS011;2331;48.806;9.140;2023-05-07T12:23:08;4.63;;;2.90;;
4636;SDS011;2331;48.806;9.140;2023-05-07T12:25:36;3.70;;;2.60;;
4636;SDS011;2331;48.806;9.140;2023-05-07T12:28:04;6.60;;;3.23;;
4636;SDS011;2331;48.806;9.140;2023-05-07T12:30:31;5.33;;;2.63;;
4636;SDS011;2331;48.806;9.140;2023-05-07T12:33:02;7.47;;;2.90;;
4636;SDS011;2331;48.806;9.140;2023-05-07T12:35:29;4.50;;;2.13;;
4636;SDS011;2331;48.806;9.140;2023-05-07T12:37:59;6.60;;;2.00;;
4636;SDS011;2331;48.806;9.140;2023-05-07T12:40:35;5.13;;;2.40;;
4636;SDS011;2331;48.806;9.140;2023-05-07T12:43:02;5.50;;;2.80;;
4636;SDS011;2331;48.806;9.140;2023-05-07T12:45:29;6.27;;;2.47;;
4636;SDS011;2331;48.806;9.140;2023-05-07T12:47:56;5.30;;;3.20;;
4636;SDS011;2331;48.806;9.140;2023-05-07T12:50:30;8.40;;;2.70;;
4636;SDS011;2331;48.806;9.140;2023-05-07T12:52:59;6.07;;;2.20;;
4636;SDS011;2331;48.806;9.140;2023-05-07T12:55:28;8.27;;;3.13;;
4636;SDS011;2331;48.806;9.140;2023-05-07T12:57:55;6.93;;;2.40;;
4636;SDS011;2331;48.806;9.140;2023-05-07T13:00:35;9.17;;;3.23;;
4636;SDS011;2331;48.806;9.140;2023-05-07T13:03:02;9.37;;;2.40;;
4636;SDS011;2331;48.806;9.140;2023-05-07T13:05:29;6.80;;;2.07;;
4636;SDS011;2331;48.806;9.140;2023-05-07T13:07:58;6.17;;;2.23;;
4636;SDS011;2331;48.806;9.140;2023-05-07T13:10:25;3.13;;;1.63;;
4636;SDS011;2331;48.806;9.140;2023-05-07T13:12:52;4.17;;;2.03;;
4636;SDS011;2331;48.806;9.140;2023-05-07T13:15:19;6.63;;;2.37;;
4636;SDS011;2331;48.806;9.140;2023-05-07T13:17:47;4.03;;;2.10;;
4636;SDS011;2331;48.806;9.140;2023-05-07T13:20:13;7.47;;;2.07;;
4636;SDS011;2331;48.806;9.140;2023-05-07T13:22:40;5.43;;;2.37;;
4636;SDS011;2331;48.806;9.140;2023-05-07T13:25:13;4.47;;;2.50;;
4636;SDS011;2331;48.806;9.140;2023-05-07T13:27:40;5.23;;;2.17;;
4636;SDS011;2331;48.806;9.140;2023-05-07T13:30:07;7.40;;;2.70;;
4636;SDS011;2331;48.806;9.140;2023-05-07T13:32:34;4.23;;;1.93;;
4636;SDS011;2331;48.806;9.140;2023-05-07T13:35:01;6.05;;;1.90;;
4636;SDS011;2331;48.806;9.140;2023-05-07T13:37:28;4.73;;;1.87;;
4636;SDS011;2331;48.806;9.140;2023-05-07T13:39:55;3.80;;;1.67;;
4636;SDS011;2331;48.806;9.140;2023-05-07T13:42:23;4.40;;;1.80;;
4636;SDS011;2331;48.806;9.140;2023-05-07T13:44:49;6.55;;;1.85;;
4636;SDS011;2331;48.806;9.140;2023-05-07T13:47:16;5.72;;;1.80;;
4636;SDS011;2331;48.806;9.140;2023-05-07T13:49:43;3.95;;;1.80;;
4636;SDS011;2331;48.806;9.140;2023-05-07T13:52:09;2.30;;;1.50;;
4636;SDS011;2331;48.806;9.140;2023-05-07T13:54:36;2.90;;;2.00;;
4636;SDS011;2331;48.806;9.140;2023-05-07T13:57:03;4.45;;;2.70;;
4636;SDS011;2331;48.806;9.140;2023-05-07T13:59:31;2.95;;;1.55;;
4636;SDS011;2331;48.806;9.140;2023-05-07T14:01:58;9.50;;;2.60;;
4636;SDS011;2331;48.806;9.140;2023-05-07T14:04:25;3.38;;;1.63;;
4636;SDS011;2331;48.806;9.140;2023-05-07T14:06:52;2.95;;;1.55;;
4636;SDS011;2331;48.806;9.140;2023-05-07T14:09:19;3.60;;;1.40;;
4636;SDS011;2331;48.806;9.140;2023-05-07T14:11:45;1.85;;;1.38;;
4636;SDS011;2331;48.806;9.140;2023-05-07T14:14:16;2.10;;;1.23;;
4636;SDS011;2331;48.806;9.140;2023-05-07T14:16:44;6.72;;;1.90;;
4636;SDS011;2331;48.806;9.140;2023-05-07T14:19:11;4.35;;;1.42;;
4636;SDS011;2331;48.806;9.140;2023-05-07T14:21:38;3.85;;;1.88;;
4636;SDS011;2331;48.806;9.140;2023-05-07T14:24:05;1.95;;;1.35;;
4636;SDS011;2331;48.806;9.140;2023-05-07T14:26:33;2.72;;;1.55;;
4636;SDS011;2331;48.806;9.140;2023-05-07T14:28:59;2.75;;;1.48;;
4636;SDS011;2331;48.806;9.140;2023-05-07T14:31:26;6.50;;;1.95;;
4636;SDS011;2331;48.806;9.140;2023-05-07T14:33:54;3.45;;;1.42;;
4636;SDS011;2331;48.806;9.140;2023-05-07T14:36:22;3.08;;;2.00;;
4636;SDS011;2331;48.806;9.140;2023-05-07T14:38:51;3.15;;;1.80;;
4636;SDS011;2331;48.806;9.140;2023-05-07T14:41:17;3.22;;;1.70;;
4636;SDS011;2331;48.806;9.140;2023-05-07T14:43:45;2.25;;;1.63;;
4636;SDS011;2331;48.806;9.140;2023-05-07T14:46:15;3.70;;;1.33;;
4636;SDS011;2331;48.806;9.140;2023-05-07T14:48:42;3.00;;;1.48;;
4636;SDS011;2331;48.806;9.140;2023-05-07T14:51:11;3.53;;;1.95;;
4636;SDS011;2331;48.806;9.140;2023-05-07T14:53:38;1.80;;;1.63;;
4636;SDS011;2331;48.806;9.140;2023-05-07T14:56:05;1.70;;;1.50;;
4636;SDS011;2331;48.806;9.140;2023-05-07T14:58:32;5.47;;;2.10;;
4636;SDS011;2331;48.806;9.140;2023-05-07T15:00:59;3.05;;;1.50;;
4636;SDS011;2331;48.806;9.140;2023-05-07T15:03:26;2.78;;;1.50;;
4636;SDS011;2331;48.806;9.140;2023-05-07T15:05:53;3.75;;;2.10;;
4636;SDS011;2331;48.806;9.140;2023-05-07T15:08:21;4.40;;;1.52;;
4636;SDS011;2331;48.806;9.140;2023-05-07T15:10:48;4.63;;;2.20;;
4636;SDS011;2331;48.806;9.140;2023-05-07T15:13:15;3.20;;;1.90;;
4636;SDS011;2331;48.806;9.140;2023-05-07T15:15:41;2.90;;;1.67;;
4636;SDS011;2331;48.806;9.140;2023-05-07T15:18:09;2.35;;;1.50;;
4636;SDS011;2331;48.806;9.140;2023-05-07T15:20:36;5.53;;;1.55;;
4636;SDS011;2331;48.806;9.140;2023-05-07T15:23:03;3.75;;;1.63;;
4636;SDS011;2331;48.806;9.140;2023-05-07T15:25:32;2.47;;;1.80;;
4636;SDS011;2331;48.806;9.140;2023-05-07T15:27:58;2.35;;;1.50;;